Time;durP1;ratioP1;P1;durP2;ratioP2;P2;SDS_P1;SDS_P2;PMS_P1;PMS_P2;Temp;Humidity;BMP_temperature;BMP_pressure;BME280_temperature;BME280_humidity;BME280_pressure;Samples;Min_cycle;Max_cycle;Signal;HPM_P1;HPM_P2
2023/03/03 00:00:53;;;;;;;659.57;48.17;;;0.00;99.90;;;;;;5053553;28;20135;-32
2023/03/03 00:03:25;;;;;;;661.30;46.40;;;0.00;99.90;;;;;;5054266;28;20053;-33
2023/03/03 00:05:51;;;;;;;636.00;45.33;;;-0.10;99.90;;;;;;5054159;28;20045;-32
2023/03/03 00:08:21;;;;;;;614.00;46.43;;;-0.20;99.90;;;;;;5053260;28;20061;-32
2023/03/03 00:10:47;;;;;;;513.90;39.67;;;-0.30;99.90;;;;;;5054159;28;20084;-31
2023/03/03 00:13:23;;;;;;;628.70;44.10;;;-0.40;99.90;;;;;;5053539;28;20084;-31
2023/03/03 00:15:50;;;;;;;565.53;42.40;;;-0.40;99.90;;;;;;5053609;28;20045;-32
2023/03/03 00:18:35;;;;;;;439.07;34.87;;;-0.50;99.90;;;;;;5053442;28;20553;-31
2023/03/03 00:21:02;;;;;;;489.43;33.93;;;-0.60;99.90;;;;;;5053617;28;20091;-31
2023/03/03 00:23:39;;;;;;;393.20;32.63;;;-0.70;99.90;;;;;;5053453;28;20495;-31
2023/03/03 00:26:35;;;;;;;479.07;36.17;;;-0.70;99.90;;;;;;5036720;28;20064;-32
2023/03/03 00:29:01;;;;;;;494.83;35.30;;;-0.80;99.90;;;;;;5052123;28;20049;-31
2023/03/03 00:31:33;;;;;;;424.87;36.67;;;-0.90;99.90;;;;;;5052466;28;20124;-30
2023/03/03 00:34:21;;;;;;;584.80;40.30;;;-1.00;99.90;;;;;;5052402;28;20053;-31
2023/03/03 00:36:54;;;;;;;704.23;42.73;;;-1.00;99.90;;;;;;5052139;28;20081;-32
2023/03/03 00:39:40;;;;;;;591.30;45.85;;;-1.10;99.90;;;;;;5053620;28;20467;-30
2023/03/03 00:42:17;;;;;;;623.07;44.03;;;-1.20;99.90;;;;;;5053303;28;20048;-30
2023/03/03 00:44:55;;;;;;;570.87;46.33;;;-1.30;99.90;;;;;;5053300;28;20155;-30
2023/03/03 00:47:36;;;;;;;552.70;40.53;;;-1.50;99.90;;;;;;5053520;28;20056;-31
2023/03/03 00:50:10;;;;;;;466.30;41.93;;;-1.40;99.90;;;;;;5053291;28;20053;-31
2023/03/03 00:52:39;;;;;;;363.67;36.73;;;-1.50;99.90;;;;;;5053282;28;20056;-31
2023/03/03 00:55:06;;;;;;;434.87;37.90;;;-1.60;99.90;;;;;;5052219;28;20087;-31
2023/03/03 00:57:32;;;;;;;498.20;40.90;;;-1.70;99.90;;;;;;5053167;28;20399;-31
2023/03/03 00:59:58;;;;;;;354.53;33.50;;;-1.80;99.90;;;;;;5051963;28;20049;-31
2023/03/03 01:02:24;;;;;;;651.43;46.67;;;-1.90;99.90;;;;;;5053117;28;20203;-31
2023/03/03 01:04:55;;;;;;;777.03;52.53;;;-1.90;99.90;;;;;;5053017;28;20067;-31
2023/03/03 01:07:21;;;;;;;662.77;41.83;;;-1.90;99.90;;;;;;5053286;28;20475;-31
2023/03/03 01:09:46;;;;;;;542.03;39.30;;;-2.10;99.90;;;;;;5051271;28;20049;-32
2023/03/03 01:12:12;;;;;;;600.03;41.80;;;-2.10;99.90;;;;;;5053012;28;20099;-31
2023/03/03 01:14:39;;;;;;;585.60;42.77;;;-2.20;99.90;;;;;;5052972;28;20515;-32
2023/03/03 01:17:05;;;;;;;473.43;39.83;;;-2.20;99.90;;;;;;5053000;28;20049;-31
2023/03/03 01:19:31;;;;;;;522.63;42.27;;;-2.30;99.90;;;;;;5051374;28;20107;-32
2023/03/03 01:21:57;;;;;;;501.77;41.17;;;-2.30;99.90;;;;;;5052208;28;20498;-32
2023/03/03 01:24:23;;;;;;;445.43;37.73;;;-2.50;99.90;;;;;;5052878;28;20049;-31
2023/03/03 01:26:49;;;;;;;510.73;38.77;;;-2.50;99.90;;;;;;5035299;28;20048;-31
2023/03/03 01:29:15;;;;;;;383.13;35.03;;;-2.60;99.90;;;;;;5052878;28;20045;-31
2023/03/03 01:31:41;;;;;;;277.70;31.57;;;-2.70;99.90;;;;;;5053497;28;20076;-32
2023/03/03 01:34:07;;;;;;;221.17;27.63;;;-2.70;99.90;;;;;;5056091;28;20411;-31
2023/03/03 01:36:33;;;;;;;153.03;24.57;;;-2.80;99.90;;;;;;5056352;28;20045;-32
2023/03/03 01:39:00;;;;;;;163.90;25.40;;;-2.90;99.90;;;;;;5055623;28;20142;-31
2023/03/03 01:41:32;;;;;;;128.90;21.90;;;-3.00;99.90;;;;;;5056837;28;20087;-31
2023/03/03 01:43:58;;;;;;;193.83;24.97;;;-3.10;99.90;;;;;;5057062;28;20049;-31
2023/03/03 01:46:55;;;;;;;179.23;24.57;;;-2.90;99.90;;;;;;5056168;28;20056;-31
2023/03/03 01:49:36;;;;;;;293.20;30.47;;;-3.30;99.90;;;;;;5056428;28;20142;-32
2023/03/03 01:52:13;;;;;;;377.37;31.27;;;-3.30;99.90;;;;;;5054879;28;20060;-31
2023/03/03 01:54:49;;;;;;;345.80;30.93;;;-3.40;99.90;;;;;;5056348;28;20049;-31
2023/03/03 01:57:25;;;;;;;420.77;34.07;;;-3.40;99.90;;;;;;5056035;28;20041;-31
2023/03/03 01:59:52;;;;;;;538.70;38.13;;;-3.40;99.90;;;;;;5054800;28;20076;-31
2023/03/03 02:02:18;;;;;;;494.27;36.50;;;-3.50;99.90;;;;;;5054913;28;20049;-31
2023/03/03 02:04:44;;;;;;;524.43;37.63;;;-3.40;99.90;;;;;;5055418;28;20402;-32
2023/03/03 02:07:13;;;;;;;597.03;42.70;;;-3.60;99.90;;;;;;5055955;28;20133;-31
2023/03/03 02:10:02;;;;;;;494.37;35.70;;;-3.60;99.90;;;;;;5055918;28;20087;-31
2023/03/03 02:12:42;;;;;;;332.93;30.47;;;-3.70;99.90;;;;;;5054545;28;20160;-31
2023/03/03 02:15:16;;;;;;;478.70;36.53;;;-3.80;99.90;;;;;;5055956;28;20049;-31
2023/03/03 02:17:43;;;;;;;526.13;38.10;;;-3.80;99.90;;;;;;5055578;28;20048;-31
2023/03/03 02:20:33;;;;;;;430.17;35.57;;;-3.80;99.90;;;;;;5056379;28;20426;-31
2023/03/03 02:23:10;;;;;;;115.57;23.00;;;-3.80;99.90;;;;;;5054853;28;20049;-31
2023/03/03 02:26:04;;;;;;;238.57;27.00;;;-3.80;99.90;;;;;;5055503;28;20049;-31
2023/03/03 02:28:33;;;;;;;39.73;19.07;;;-3.90;99.90;;;;;;5056213;28;20155;-31
2023/03/03 02:30:59;;;;;;;37.57;18.03;;;-3.90;99.90;;;;;;5054365;28;20049;-30
2023/03/03 02:33:26;;;;;;;39.90;19.23;;;-3.90;99.90;;;;;;5055310;28;20178;-31
2023/03/03 02:35:52;;;;;;;34.63;18.27;;;-3.90;99.90;;;;;;5056055;28;20041;-31
2023/03/03 02:38:32;;;;;;;39.80;19.60;;;-3.90;99.90;;;;;;5054014;28;20041;-31
2023/03/03 02:41:25;;;;;;;44.53;20.17;;;-3.90;99.90;;;;;;5054792;28;20045;-31
2023/03/03 02:44:14;;;;;;;49.08;20.20;;;-3.90;99.90;;;;;;5055921;28;20455;-31
2023/03/03 02:46:43;;;;;;;41.60;19.97;;;-3.90;99.90;;;;;;5053969;28;20053;-31
2023/03/03 02:49:11;;;;;;;42.20;20.53;;;-3.80;99.90;;;;;;5054916;28;20048;-30
2023/03/03 02:51:38;;;;;;;45.00;21.30;;;-3.80;99.90;;;;;;5054284;28;20128;-31
2023/03/03 02:54:05;;;;;;;45.73;20.87;;;-3.80;99.90;;;;;;5055175;28;20052;-30
2023/03/03 02:56:30;;;;;;;49.50;22.20;;;-3.70;99.90;;;;;;5054836;28;20102;-30
2023/03/03 02:58:56;;;;;;;49.20;21.67;;;-3.70;99.90;;;;;;5054787;28;20040;-31
2023/03/03 03:01:22;;;;;;;48.90;22.20;;;-3.60;99.90;;;;;;5053605;28;20048;-31
2023/03/03 03:03:48;;;;;;;39.50;19.90;;;-3.60;99.90;;;;;;5054265;28;20499;-31
2023/03/03 03:06:14;;;;;;;41.83;20.70;;;-3.50;99.90;;;;;;5054424;28;20135;-30
2023/03/03 03:08:40;;;;;;;40.70;19.70;;;-3.60;99.90;;;;;;5052840;28;20076;-31
2023/03/03 03:11:06;;;;;;;42.60;21.67;;;-3.60;99.90;;;;;;5054635;28;20134;-31
2023/03/03 03:13:32;;;;;;;42.90;20.10;;;-3.60;99.90;;;;;;5053602;28;20080;-31
2023/03/03 03:15:59;;;;;;;40.23;19.00;;;-3.60;99.90;;;;;;5054725;28;20045;-31
2023/03/03 03:18:26;;;;;;;42.43;19.60;;;-3.60;99.90;;;;;;5054951;28;20052;-31
2023/03/03 03:20:52;;;;;;;44.07;19.30;;;-3.50;99.90;;;;;;5055193;28;20420;-30
2023/03/03 03:23:20;;;;;;;44.10;19.13;;;-3.50;99.90;;;;;;5053114;28;20178;-30
2023/03/03 03:25:47;;;;;;;41.73;18.40;;;-3.60;99.90;;;;;;5054356;28;20049;-31
2023/03/03 03:28:14;;;;;;;41.33;19.57;;;-3.60;99.90;;;;;;5054182;28;20138;-30
2023/03/03 03:30:40;;;;;;;44.17;19.07;;;-3.70;99.90;;;;;;5055045;28;20049;-31
2023/03/03 03:33:06;;;;;;;36.43;17.93;;;-3.80;99.90;;;;;;5054470;28;20051;-31
2023/03/03 03:35:33;;;;;;;36.40;19.20;;;-3.80;99.90;;;;;;5054763;28;20049;-31
2023/03/03 03:38:00;;;;;;;36.90;18.60;;;-3.90;99.90;;;;;;5052936;28;20438;-31
2023/03/03 03:40:26;;;;;;;40.00;18.33;;;-3.90;99.90;;;;;;5053142;28;20041;-31
2023/03/03 03:42:55;;;;;;;36.60;18.30;;;-3.90;99.90;;;;;;5054045;28;20504;-30
2023/03/03 03:45:20;;;;;;;40.07;19.60;;;-4.00;99.90;;;;;;5053940;28;20045;-30
2023/03/03 03:47:46;;;;;;;39.23;18.87;;;-4.00;99.90;;;;;;5036054;28;20102;-31
2023/03/03 03:50:12;;;;;;;36.90;19.17;;;-4.10;99.90;;;;;;5052995;28;20084;-31
2023/03/03 03:52:38;;;;;;;35.20;17.77;;;-4.10;99.90;;;;;;5054178;28;20495;-32
2023/03/03 03:55:05;;;;;;;39.47;18.33;;;-4.10;99.90;;;;;;5053335;28;20051;-31
2023/03/03 03:57:31;;;;;;;43.40;19.37;;;-4.10;99.90;;;;;;5053794;28;20044;-32
2023/03/03 03:59:56;;;;;;;45.80;19.37;;;-4.10;99.90;;;;;;5052812;28;20049;-30
2023/03/03 04:02:22;;;;;;;43.53;19.63;;;-4.00;99.90;;;;;;5054556;28;20049;-30
2023/03/03 04:04:48;;;;;;;49.40;20.97;;;-4.00;99.90;;;;;;5053627;28;20086;-30
2023/03/03 04:07:14;;;;;;;44.50;20.40;;;-4.00;99.90;;;;;;5053936;28;20041;-30
2023/03/03 04:09:40;;;;;;;41.37;18.40;;;-4.00;99.90;;;;;;5053276;28;20617;-30
2023/03/03 04:12:06;;;;;;;46.20;21.03;;;-4.00;99.90;;;;;;5053603;28;20045;-31
2023/03/03 04:14:32;;;;;;;55.50;21.77;;;-4.00;99.90;;;;;;5053863;28;20091;-31
2023/03/03 04:16:58;;;;;;;54.90;22.53;;;-4.00;99.90;;;;;;5053808;28;20134;-31
2023/03/03 04:19:23;;;;;;;69.23;25.47;;;-3.90;99.90;;;;;;5052461;28;20510;-31
2023/03/03 04:21:50;;;;;;;51.73;22.10;;;-3.80;99.90;;;;;;5053551;28;20407;-30
2023/03/03 04:24:16;;;;;;;49.37;21.93;;;-3.80;99.90;;;;;;5053464;28;20044;-31
2023/03/03 04:26:42;;;;;;;48.97;21.27;;;-3.90;99.90;;;;;;5053467;28;20056;-30
2023/03/03 04:29:07;;;;;;;48.53;22.00;;;-3.90;99.90;;;;;;5053408;28;20041;-31
2023/03/03 04:31:33;;;;;;;48.77;22.20;;;-3.90;99.90;;;;;;5053402;28;20553;-31
2023/03/03 04:33:59;;;;;;;45.77;20.77;;;-3.90;99.90;;;;;;5053397;28;20041;-30
2023/03/03 04:36:25;;;;;;;44.67;20.73;;;-3.90;99.90;;;;;;5052757;28;20052;-30
2023/03/03 04:38:51;;;;;;;46.43;20.93;;;-4.00;99.90;;;;;;5035921;28;20049;-31
2023/03/03 04:41:17;;;;;;;48.33;20.00;;;-4.00;99.90;;;;;;5053278;28;20136;-30
2023/03/03 04:43:43;;;;;;;44.27;21.57;;;-4.00;99.90;;;;;;5053296;28;20080;-32
2023/03/03 04:46:08;;;;;;;42.97;20.70;;;-3.90;99.90;;;;;;5053286;28;20094;-30
2023/03/03 04:48:34;;;;;;;42.53;19.67;;;-3.90;99.90;;;;;;5053199;28;20051;-30
2023/03/03 04:51:00;;;;;;;42.33;20.27;;;-3.80;99.90;;;;;;5054299;28;20045;-30
2023/03/03 04:53:25;;;;;;;43.50;20.37;;;-3.80;99.90;;;;;;5053227;28;20479;-31
2023/03/03 04:55:53;;;;;;;44.97;20.20;;;-3.80;99.90;;;;;;5053216;28;20456;-29
2023/03/03 04:58:19;;;;;;;40.60;19.67;;;-3.90;99.90;;;;;;5052175;28;20084;-30
2023/03/03 05:01:03;;;;;;;46.10;21.17;;;-3.90;99.90;;;;;;5052986;28;20095;-29
2023/03/03 05:03:29;;;;;;;41.40;20.77;;;-3.90;99.90;;;;;;5052725;28;20479;-30
2023/03/03 05:05:55;;;;;;;45.93;21.73;;;-3.90;99.90;;;;;;5053659;28;20098;-30
2023/03/03 05:08:21;;;;;;;58.13;22.93;;;-3.90;99.90;;;;;;5056884;28;20076;-30
2023/03/03 05:10:51;;;;;;;49.50;21.50;;;-3.90;99.90;;;;;;5055897;28;20064;-31
2023/03/03 05:13:17;;;;;;;52.97;21.23;;;-3.80;99.90;;;;;;5056869;28;20116;-31
2023/03/03 05:15:47;;;;;;;48.80;22.40;;;-3.70;99.90;;;;;;5056859;28;20049;-30
2023/03/03 05:18:13;;;;;;;53.47;22.47;;;-3.70;99.90;;;;;;5055633;28;20045;-31
2023/03/03 05:20:40;;;;;;;63.30;24.80;;;-3.60;99.90;;;;;;5056763;28;20124;-30
2023/03/03 05:23:06;;;;;;;53.10;23.27;;;-3.60;99.90;;;;;;5057229;28;20052;-30
2023/03/03 05:25:37;;;;;;;46.83;22.27;;;-3.00;99.90;;;;;;5056679;28;20049;-31
2023/03/03 05:28:03;;;;;;;52.77;22.07;;;-3.60;99.90;;;;;;5056877;28;20045;-30
2023/03/03 05:30:29;;;;;;;47.77;22.00;;;-3.70;99.90;;;;;;5038936;28;20478;-31
2023/03/03 05:32:55;;;;;;;50.47;22.00;;;-3.70;99.90;;;;;;5055299;28;20059;-31
2023/03/03 05:35:20;;;;;;;53.17;21.33;;;-3.70;99.90;;;;;;5056981;28;20429;-31
2023/03/03 05:37:48;;;;;;;56.13;22.67;;;-3.70;99.90;;;;;;5056358;28;20044;-31
2023/03/03 05:40:14;;;;;;;49.47;22.43;;;-3.60;99.90;;;;;;5056371;28;20452;-30
2023/03/03 05:42:40;;;;;;;53.47;23.80;;;-3.70;99.90;;;;;;5056251;28;20550;-30
2023/03/03 05:45:06;;;;;;;54.87;22.57;;;-3.70;99.90;;;;;;5056988;28;20076;-30
2023/03/03 05:47:32;;;;;;;48.13;21.73;;;-3.70;99.90;;;;;;5056643;28;20127;-30
2023/03/03 05:49:59;;;;;;;48.17;20.67;;;-3.80;99.90;;;;;;5055304;28;20138;-30
2023/03/03 05:52:25;;;;;;;51.73;21.63;;;-3.80;99.90;;;;;;5056906;28;20064;-30
2023/03/03 05:54:51;;;;;;;52.03;20.37;;;-3.90;99.90;;;;;;5054801;28;20399;-31
2023/03/03 05:57:16;;;;;;;47.40;20.17;;;-3.80;99.90;;;;;;5055056;28;20084;-30
2023/03/03 05:59:42;;;;;;;57.23;21.33;;;-3.70;99.90;;;;;;5056002;28;20076;-30
2023/03/03 06:02:08;;;;;;;62.23;20.63;;;-3.60;99.90;;;;;;5055924;28;20087;-30
2023/03/03 06:04:34;;;;;;;70.03;21.40;;;-3.60;99.90;;;;;;5055453;28;20053;-30
2023/03/03 06:06:59;;;;;;;148.63;25.27;;;-3.60;99.90;;;;;;5054831;28;20040;-30
2023/03/03 06:09:25;;;;;;;267.47;30.67;;;-3.60;99.90;;;;;;5054503;28;20057;-30
2023/03/03 06:11:52;;;;;;;257.47;28.23;;;-3.50;99.90;;;;;;5055954;28;20049;-29
2023/03/03 06:14:22;;;;;;;253.80;28.70;;;-3.60;99.90;;;;;;5055649;28;20052;-30
2023/03/03 06:16:48;;;;;;;588.33;42.90;;;-3.60;99.90;;;;;;5055451;28;20045;-30
2023/03/03 06:19:14;;;;;;;211.20;24.63;;;-3.60;99.90;;;;;;5056138;28;20044;-30
2023/03/03 06:21:40;;;;;;;246.40;25.97;;;-3.70;99.90;;;;;;5055522;28;20048;-30
2023/03/03 06:24:06;;;;;;;221.30;24.70;;;-3.70;99.90;;;;;;5055470;28;20095;-30
2023/03/03 06:26:32;;;;;;;70.17;20.17;;;-3.70;99.90;;;;;;5054285;28;20156;-30
2023/03/03 06:28:58;;;;;;;259.80;22.63;;;-3.60;99.90;;;;;;5055303;28;20086;-30
2023/03/03 06:31:25;;;;;;;105.37;20.10;;;-3.70;99.90;;;;;;5055643;28;20095;-30
2023/03/03 06:33:51;;;;;;;62.17;18.87;;;-3.70;99.90;;;;;;5055012;28;20499;-30
2023/03/03 06:36:17;;;;;;;272.43;27.43;;;-3.60;99.90;;;;;;5055676;28;20059;-30
2023/03/03 06:38:43;;;;;;;120.03;21.57;;;-3.60;99.90;;;;;;5055091;28;20037;-30
2023/03/03 06:41:09;;;;;;;53.53;18.10;;;-3.20;99.90;;;;;;5055010;28;20092;-30
2023/03/03 06:43:36;;;;;;;256.73;20.90;;;-3.30;99.90;;;;;;5055189;28;20058;-30
2023/03/03 06:46:03;;;;;;;217.40;21.80;;;-3.30;99.90;;;;;;5054316;28;20083;-31
2023/03/03 06:48:30;;;;;;;242.27;26.23;;;-3.30;99.90;;;;;;5054760;28;20494;-29
2023/03/03 06:51:00;;;;;;;35.50;16.13;;;-3.30;99.90;;;;;;5054858;28;20053;-30
2023/03/03 06:53:27;;;;;;;35.90;16.57;;;-3.30;99.90;;;;;;5054219;28;20052;-30
2023/03/03 06:55:55;;;;;;;33.20;15.33;;;-3.30;99.90;;;;;;5054788;28;20132;-32
2023/03/03 06:58:23;;;;;;;42.40;17.00;;;-3.30;99.90;;;;;;5055270;28;20450;-30
2023/03/03 07:00:49;;;;;;;41.60;16.80;;;-3.20;99.90;;;;;;5054614;28;20092;-29
2023/03/03 07:03:17;;;;;;;32.37;15.43;;;-3.20;99.90;;;;;;5054604;28;20049;-30
2023/03/03 07:05:44;;;;;;;38.90;16.20;;;-3.20;99.90;;;;;;5054673;28;20128;-31
2023/03/03 07:08:18;;;;;;;33.23;15.97;;;-3.20;99.90;;;;;;5054331;28;20045;-30
2023/03/03 07:10:44;;;;;;;32.63;14.40;;;-3.20;99.90;;;;;;5054425;28;20053;-30
2023/03/03 07:13:21;;;;;;;41.70;16.90;;;-3.00;99.90;;;;;;5053915;28;20200;-30
2023/03/03 07:15:49;;;;;;;35.07;15.97;;;-2.90;99.90;;;;;;5054525;28;20045;-31
2023/03/03 07:18:36;;;;;;;40.43;17.00;;;-2.80;99.90;;;;;;5053206;28;20087;-30
2023/03/03 07:21:30;;;;;;;42.90;16.33;;;-2.60;99.90;;;;;;5054309;28;20052;-30
2023/03/03 07:23:57;;;;;;;41.90;17.73;;;-2.50;99.90;;;;;;5054356;28;20154;-30
2023/03/03 07:26:34;;;;;;;41.07;17.00;;;-2.30;99.90;;;;;;5054155;28;20084;-30
2023/03/03 07:29:09;;;;;;;42.53;18.20;;;-2.10;99.90;;;;;;5053928;28;20040;-30
2023/03/03 07:31:42;;;;;;;53.63;21.00;;;-1.90;99.90;;;;;;5054251;28;20510;-30
2023/03/03 07:34:26;;;;;;;43.38;18.85;;;-1.80;99.90;;;;;;5054760;28;20048;-30
2023/03/03 07:37:00;;;;;;;50.33;20.27;;;-1.60;99.90;;;;;;5054134;28;20128;-31
2023/03/03 07:39:35;;;;;;;44.43;18.70;;;-1.50;99.90;;;;;;5054691;28;20040;-30
2023/03/03 07:42:47;;;;;;;45.67;19.50;;;-1.50;99.90;;;;;;5054369;28;20052;-31
2023/03/03 07:45:35;;;;;;;41.93;17.03;;;-1.40;99.90;;;;;;5054591;28;20490;-30
2023/03/03 07:48:35;;;;;;;53.27;19.83;;;-1.20;99.90;;;;;;5053945;28;20084;-30
2023/03/03 07:51:14;;;;;;;48.07;18.90;;;-1.20;99.90;;;;;;5053279;28;20055;-30
2023/03/03 07:53:40;;;;;;;44.37;19.30;;;-1.10;99.90;;;;;;5052727;28;20086;-30
2023/03/03 07:56:35;;;;;;;53.87;20.67;;;-1.00;99.90;;;;;;5053820;28;20049;-30
2023/03/03 07:59:19;;;;;;;39.83;18.07;;;-1.00;99.90;;;;;;5036084;28;20064;-31
2023/03/03 08:01:48;;;;;;;43.33;18.63;;;-0.90;99.90;;;;;;5054344;28;20053;-31
2023/03/03 08:04:23;;;;;;;41.10;19.23;;;-0.80;99.90;;;;;;5052917;28;20045;-30
2023/03/03 08:06:57;;;;;;;41.83;19.10;;;-0.80;99.90;;;;;;5053977;28;20399;-30
2023/03/03 08:09:43;;;;;;;46.03;20.37;;;-0.70;99.90;;;;;;5053872;28;20075;-30
2023/03/03 08:12:16;;;;;;;39.30;17.57;;;-0.60;99.90;;;;;;5053927;28;20059;-30
2023/03/03 08:14:42;;;;;;;48.37;19.00;;;-0.60;99.90;;;;;;5036888;28;20049;-30
2023/03/03 08:17:23;;;;;;;43.17;18.43;;;-0.50;99.90;;;;;;5053541;28;20047;-30
2023/03/03 08:19:51;;;;;;;37.07;16.93;;;-0.50;99.90;;;;;;5053582;28;20049;-30
2023/03/03 08:22:23;;;;;;;37.27;16.77;;;-0.30;99.90;;;;;;5053779;28;20103;-29
2023/03/03 08:24:50;;;;;;;30.57;15.80;;;-0.20;99.90;;;;;;5053428;28;20096;-30
2023/03/03 08:27:16;;;;;;;36.67;17.23;;;-0.20;99.90;;;;;;5053641;28;20275;-31
2023/03/03 08:29:42;;;;;;;28.90;15.17;;;-0.30;99.90;;;;;;5052257;28;20372;-31
2023/03/03 08:32:07;;;;;;;38.13;16.70;;;0.10;99.90;;;;;;5053014;28;20099;-29
2023/03/03 08:34:33;;;;;;;37.77;17.47;;;0.10;99.90;;;;;;5052140;28;20495;-28
2023/03/03 08:36:59;;;;;;;33.23;16.03;;;0.30;99.90;;;;;;5053627;28;20091;-28
2023/03/03 08:39:25;;;;;;;28.97;14.73;;;0.30;99.90;;;;;;5019456;28;20081;-29
2023/03/03 08:41:51;;;;;;;38.73;17.63;;;0.50;99.90;;;;;;5056615;28;20088;-29
2023/03/03 08:44:18;;;;;;;36.33;15.00;;;0.70;99.90;;;;;;5057917;28;20127;-30
2023/03/03 08:46:44;;;;;;;32.77;16.07;;;0.80;99.90;;;;;;5040342;28;20395;-29
2023/03/03 08:49:10;;;;;;;32.40;14.70;;;1.10;99.90;;;;;;5057179;28;20055;-30
2023/03/03 08:51:35;;;;;;;30.23;15.20;;;1.10;99.90;;;;;;5057242;28;20052;-31
2023/03/03 08:54:01;;;;;;;35.27;15.90;;;1.30;99.90;;;;;;5057712;28;20106;-31
2023/03/03 08:56:27;;;;;;;29.20;12.77;;;1.40;99.90;;;;;;5056438;28;20044;-31
2023/03/03 08:58:53;;;;;;;25.43;12.97;;;1.50;99.90;;;;;;5055861;28;20387;-32
2023/03/03 09:01:19;;;;;;;24.75;11.07;;;1.70;99.90;;;;;;5057059;28;20052;-33
2023/03/03 09:03:44;;;;;;;18.35;10.98;;;1.90;99.90;;;;;;5057294;28;20462;-32
2023/03/03 09:06:10;;;;;;;19.00;11.27;;;2.10;99.90;;;;;;5055701;28;20056;-32
2023/03/03 09:08:36;;;;;;;21.47;12.37;;;2.40;99.90;;;;;;5056032;28;20053;-32
2023/03/03 09:11:08;;;;;;;21.10;11.27;;;2.80;99.90;;;;;;5055977;28;20166;-32
2023/03/03 09:13:34;;;;;;;16.60;8.77;;;2.90;99.90;;;;;;5056911;28;20556;-31
2023/03/03 09:16:00;;;;;;;13.55;7.60;;;3.20;99.90;;;;;;5056693;28;20045;-30
2023/03/03 09:18:37;;;;;;;12.77;6.88;;;3.40;99.90;;;;;;5055572;28;20041;-30
2023/03/03 09:21:31;;;;;;;16.98;5.90;;;3.50;99.90;;;;;;5038861;28;20140;-30
2023/03/03 09:23:58;;;;;;;15.85;6.47;;;3.60;99.90;;;;;;5057517;28;20422;-29
2023/03/03 09:26:47;;;;;;;9.48;6.13;;;3.80;99.90;;;;;;5055470;28;20083;-29
2023/03/03 09:29:28;;;;;;;12.85;6.60;;;3.90;99.90;;;;;;5038706;28;20602;-28
2023/03/03 09:31:56;;;;;;;12.73;6.60;;;4.00;99.90;;;;;;5056500;28;20049;-30
2023/03/03 09:34:23;;;;;;;10.70;4.63;;;4.10;99.90;;;;;;5056699;28;20186;-29
2023/03/03 09:36:51;;;;;;;8.27;4.28;;;4.30;99.90;;;;;;5056410;28;20044;-29
2023/03/03 09:39:25;;;;;;;13.02;4.25;;;4.50;99.90;;;;;;5055076;28;20060;-29
2023/03/03 09:42:18;;;;;;;9.38;3.88;;;4.60;99.90;;;;;;5055887;28;20056;-29
2023/03/03 09:45:07;;;;;;;9.30;3.65;;;4.80;99.90;;;;;;5056281;28;20096;-29
2023/03/03 09:48:02;;;;;;;8.82;3.35;;;4.90;99.90;;;;;;5056456;28;20080;-29
2023/03/03 09:50:58;;;;;;;11.07;3.47;;;5.10;99.90;;;;;;5056537;28;20499;-29
2023/03/03 09:53:34;;;;;;;6.97;2.00;;;5.20;99.90;;;;;;5056171;28;20056;-30
2023/03/03 09:56:11;;;;;;;5.05;1.27;;;5.30;99.90;;;;;;5056386;28;20052;-29
2023/03/03 09:59:00;;;;;;;6.00;1.25;;;5.40;99.90;;;;;;5056255;28;20052;-30
2023/03/03 10:01:47;;;;;;;3.80;0.98;;;5.50;99.90;;;;;;5053931;28;20075;-28
2023/03/03 10:04:44;;;;;;;3.45;1.15;;;5.60;99.90;;;;;;5055793;28;20095;-28
2023/03/03 10:07:38;;;;;;;4.30;1.10;;;5.90;99.90;;;;;;5056255;28;20128;-29
2023/03/03 10:10:32;;;;;;;3.58;0.70;;;6.20;99.90;;;;;;5054250;28;20065;-29
2023/03/03 10:13:08;;;;;;;3.38;0.70;;;6.40;99.90;;;;;;5054453;28;20045;-28
2023/03/03 10:15:52;;;;;;;3.20;0.50;;;6.50;99.90;;;;;;5055703;28;20041;-28
2023/03/03 10:18:35;;;;;;;4.10;0.40;;;6.70;99.90;;;;;;5055660;28;20048;-28
2023/03/03 10:21:16;;;;;;;2.65;0.30;;;6.60;99.90;;;;;;5055594;28;20056;-28
2023/03/03 10:24:06;;;;;;;1.88;0.30;;;6.70;99.90;;;;;;5054907;28;20049;-28
2023/03/03 10:26:54;;;;;;;2.47;0.13;;;6.70;99.90;;;;;;5056354;28;20041;-28
2023/03/03 10:29:33;;;;;;;2.17;0.30;;;6.80;99.90;;;;;;5054204;28;20483;-27
2023/03/03 10:32:32;;;;;;;5.35;0.68;;;6.60;99.90;;;;;;5056155;28;20158;-28
2023/03/03 10:35:17;;;;;;;4.05;0.40;;;6.60;99.90;;;;;;5022106;28;20053;-28
2023/03/03 10:38:08;;;;;;;3.55;0.77;;;6.50;99.90;;;;;;5055244;28;20395;-27
2023/03/03 10:40:41;;;;;;;4.00;0.50;;;6.50;99.90;;;;;;5055503;28;20123;-28
2023/03/03 10:43:27;;;;;;;3.35;0.45;;;6.40;99.90;;;;;;5055733;28;20045;-29
2023/03/03 10:45:59;;;;;;;5.93;0.93;;;6.40;99.90;;;;;;5055131;28;20080;-27
2023/03/03 10:48:49;;;;;;;2.47;0.35;;;6.40;99.90;;;;;;5055784;28;20052;-28
2023/03/03 10:51:51;;;;;;;2.03;0.50;;;6.40;99.90;;;;;;5055249;28;20484;-28
2023/03/03 10:54:37;;;;;;;5.53;0.60;;;6.50;99.90;;;;;;5055252;28;20049;-28
2023/03/03 10:57:36;;;;;;;4.60;0.60;;;6.60;99.90;;;;;;5055137;28;20471;-28
2023/03/03 11:00:22;;;;;;;3.08;0.35;;;6.60;99.90;;;;;;5054884;28;20094;-29
2023/03/03 11:03:12;;;;;;;4.05;0.30;;;6.50;99.90;;;;;;5055343;28;20048;-30
2023/03/03 11:05:47;;;;;;;6.07;0.30;;;6.50;99.90;;;;;;5054002;28;20053;-28
2023/03/03 11:08:15;;;;;;;2.15;0.60;;;6.80;99.90;;;;;;5055269;28;20041;-29
2023/03/03 11:10:44;;;;;;;4.43;0.50;;;7.30;99.90;;;;;;5054354;28;20063;-29
2023/03/03 11:13:39;;;;;;;6.65;0.82;;;7.60;99.90;;;;;;5054270;28;20450;-29
2023/03/03 11:16:20;;;;;;;3.03;0.73;;;7.70;99.90;;;;;;5054539;28;20049;-30
2023/03/03 11:19:02;;;;;;;4.75;0.68;;;7.80;99.90;;;;;;5053225;28;20056;-31
2023/03/03 11:21:37;;;;;;;2.20;0.43;;;7.80;99.90;;;;;;5054953;28;20045;-29
2023/03/03 11:24:29;;;;;;;4.65;0.77;;;7.80;99.90;;;;;;5037102;28;20475;-30
2023/03/03 11:27:12;;;;;;;3.55;0.65;;;7.60;99.90;;;;;;5054265;28;20084;-31
2023/03/03 11:30:02;;;;;;;2.58;0.40;;;7.50;99.90;;;;;;5036519;28;20052;-31
2023/03/03 11:33:03;;;;;;;4.70;0.47;;;7.80;99.90;;;;;;5054286;28;20100;-32
2023/03/03 11:35:55;;;;;;;5.70;1.00;;;8.10;99.90;;;;;;5053409;28;20488;-32
2023/03/03 11:39:05;;;;;;;5.50;0.55;;;8.00;99.90;;;;;;5054164;28;20041;-32
2023/03/03 11:41:41;;;;;;;7.72;0.90;;;7.90;99.90;;;;;;5051709;28;20049;-32
2023/03/03 11:44:21;;;;;;;7.03;1.10;;;7.70;99.90;;;;;;5051638;28;20067;-33
2023/03/03 11:47:04;;;;;;;10.35;1.98;;;7.50;99.90;;;;;;5052812;28;20495;-32
2023/03/03 11:49:59;;;;;;;5.15;0.80;;;7.30;99.90;;;;;;5053904;28;20204;-32
2023/03/03 11:52:44;;;;;;;7.00;0.63;;;7.20;99.90;;;;;;5054919;28;20052;-33
2023/03/03 11:55:37;;;;;;;6.32;0.95;;;7.50;99.90;;;;;;5054665;28;20052;-32
2023/03/03 11:58:26;;;;;;;6.33;0.77;;;7.50;99.90;;;;;;5053976;28;20052;-33
2023/03/03 12:01:04;;;;;;;6.82;1.60;;;7.40;99.90;;;;;;5053807;28;20290;-32
2023/03/03 12:03:51;;;;;;;8.70;1.02;;;7.40;99.90;;;;;;5054331;28;20146;-33
2023/03/03 12:06:46;;;;;;;6.18;0.70;;;7.30;99.90;;;;;;5052610;28;20049;-32
2023/03/03 12:09:45;;;;;;;11.35;0.93;;;7.30;99.90;;;;;;5042990;28;20060;-33
2023/03/03 12:12:25;;;;;;;7.18;0.90;;;7.50;99.90;;;;;;5054440;28;20096;-33
2023/03/03 12:15:15;;;;;;;12.52;1.30;;;7.50;99.90;;;;;;5053779;28;20447;-33
2023/03/03 12:17:41;;;;;;;7.47;1.30;;;7.50;99.90;;;;;;5053566;28;20071;-33
2023/03/03 12:20:36;;;;;;;7.75;1.38;;;7.60;99.90;;;;;;5052551;28;20570;-32
2023/03/03 12:23:23;;;;;;;7.22;0.70;;;7.60;99.90;;;;;;5053743;28;20529;-33
2023/03/03 12:26:26;;;;;;;8.65;0.98;;;7.60;99.90;;;;;;5052191;28;20064;-33
2023/03/03 12:29:00;;;;;;;4.97;1.13;;;7.60;99.90;;;;;;5053946;28;20051;-32
2023/03/03 12:31:43;;;;;;;8.27;1.27;;;7.40;99.90;;;;;;5036168;28;20287;-33
2023/03/03 12:34:19;;;;;;;6.47;1.13;;;7.40;99.90;;;;;;5053720;28;20048;-33
2023/03/03 12:36:58;;;;;;;8.35;0.98;;;7.30;99.90;;;;;;5053902;28;20053;-33
2023/03/03 12:39:55;;;;;;;14.88;2.58;;;7.30;99.90;;;;;;5053646;28;20077;-32
2023/03/03 12:42:37;;;;;;;8.95;1.30;;;7.30;99.90;;;;;;5052404;28;20049;-33
2023/03/03 12:45:38;;;;;;;4.80;0.90;;;7.30;99.90;;;;;;5035197;28;20049;-33
2023/03/03 12:48:14;;;;;;;6.30;1.35;;;7.40;99.90;;;;;;5034690;28;20108;-33
2023/03/03 12:50:54;;;;;;;8.98;0.90;;;7.80;99.90;;;;;;5049400;28;20068;-33
2023/03/03 12:53:38;;;;;;;9.88;1.40;;;8.20;99.90;;;;;;5053024;28;20466;-33
2023/03/03 12:56:11;;;;;;;13.48;1.90;;;8.10;99.90;;;;;;5053258;28;20499;-33
2023/03/03 12:59:03;;;;;;;12.45;3.15;;;8.00;99.90;;;;;;5052249;28;20122;-32
2023/03/03 13:01:59;;;;;;;10.38;2.20;;;7.60;99.90;;;;;;5052175;28;20049;-33
2023/03/03 13:04:41;;;;;;;10.27;2.03;;;7.40;99.90;;;;;;5053086;28;20128;-33
2023/03/03 13:07:30;;;;;;;12.45;1.70;;;7.40;99.90;;;;;;5053179;28;20131;-34